sensor_id;sensor_type;location;lat;lon;timestamp;P1;durP1;ratioP1;P2;durP2;ratioP2
66581;SDS011;53438;48.898;2.308;2023-11-19T00:00:05;2.17;;;0.75;;
66581;SDS011;53438;48.898;2.308;2023-11-19T00:02:36;3.75;;;0.90;;
66581;SDS011;53438;48.898;2.308;2023-11-19T00:05:01;3.00;;;0.70;;
66581;SDS011;53438;48.898;2.308;2023-11-19T00:07:26;2.30;;;0.67;;
66581;SDS011;53438;48.898;2.308;2023-11-19T00:09:51;2.90;;;0.83;;
66581;SDS011;53438;48.898;2.308;2023-11-19T00:12:17;2.57;;;0.73;;
66581;SDS011;53438;48.898;2.308;2023-11-19T00:14:43;3.05;;;0.60;;
66581;SDS011;53438;48.898;2.308;2023-11-19T00:17:09;2.13;;;0.50;;
66581;SDS011;53438;48.898;2.308;2023-11-19T00:19:34;1.53;;;0.53;;
66581;SDS011;53438;48.898;2.308;2023-11-19T00:22:00;1.75;;;0.50;;
66581;SDS011;53438;48.898;2.308;2023-11-19T00:24:28;2.00;;;0.50;;
66581;SDS011;53438;48.898;2.308;2023-11-19T00:26:55;1.83;;;0.70;;
66581;SDS011;53438;48.898;2.308;2023-11-19T00:29:21;2.80;;;0.90;;
66581;SDS011;53438;48.898;2.308;2023-11-19T00:31:46;3.17;;;0.93;;
66581;SDS011;53438;48.898;2.308;2023-11-19T00:34:12;1.73;;;0.97;;
66581;SDS011;53438;48.898;2.308;2023-11-19T00:36:37;1.73;;;0.77;;
66581;SDS011;53438;48.898;2.308;2023-11-19T00:39:02;3.40;;;1.80;;
66581;SDS011;53438;48.898;2.308;2023-11-19T00:41:28;4.83;;;1.40;;
66581;SDS011;53438;48.898;2.308;2023-11-19T00:43:53;1.70;;;0.70;;
66581;SDS011;53438;48.898;2.308;2023-11-19T00:46:18;3.63;;;0.70;;
66581;SDS011;53438;48.898;2.308;2023-11-19T00:48:44;1.30;;;0.60;;
66581;SDS011;53438;48.898;2.308;2023-11-19T00:51:12;2.50;;;0.70;;
66581;SDS011;53438;48.898;2.308;2023-11-19T00:53:37;2.25;;;0.60;;
66581;SDS011;53438;48.898;2.308;2023-11-19T00:56:03;2.50;;;0.87;;
66581;SDS011;53438;48.898;2.308;2023-11-19T00:58:28;2.33;;;0.70;;
66581;SDS011;53438;48.898;2.308;2023-11-19T04:02:38;6.43;;;1.37;;
66581;SDS011;53438;48.898;2.308;2023-11-19T04:05:04;6.07;;;0.75;;
66581;SDS011;53438;48.898;2.308;2023-11-19T04:07:30;7.22;;;1.30;;
66581;SDS011;53438;48.898;2.308;2023-11-19T04:09:56;4.55;;;0.90;;
66581;SDS011;53438;48.898;2.308;2023-11-19T04:12:22;6.00;;;0.93;;
66581;SDS011;53438;48.898;2.308;2023-11-19T04:14:47;2.65;;;1.27;;
66581;SDS011;53438;48.898;2.308;2023-11-19T04:17:12;3.65;;;1.10;;
66581;SDS011;53438;48.898;2.308;2023-11-19T04:19:38;3.83;;;0.70;;
66581;SDS011;53438;48.898;2.308;2023-11-19T04:22:04;5.53;;;1.00;;
66581;SDS011;53438;48.898;2.308;2023-11-19T04:24:29;7.20;;;0.90;;
66581;SDS011;53438;48.898;2.308;2023-11-19T04:26:54;4.37;;;0.97;;
66581;SDS011;53438;48.898;2.308;2023-11-19T04:29:19;3.97;;;0.97;;
66581;SDS011;53438;48.898;2.308;2023-11-19T04:31:45;3.40;;;0.70;;
66581;SDS011;53438;48.898;2.308;2023-11-19T04:34:11;5.45;;;0.70;;
66581;SDS011;53438;48.898;2.308;2023-11-19T04:36:37;7.60;;;0.82;;
66581;SDS011;53438;48.898;2.308;2023-11-19T04:39:02;8.10;;;1.67;;
66581;SDS011;53438;48.898;2.308;2023-11-19T04:41:34;4.00;;;0.68;;
66581;SDS011;53438;48.898;2.308;2023-11-19T04:43:59;4.03;;;0.80;;
66581;SDS011;53438;48.898;2.308;2023-11-19T04:46:24;8.90;;;1.58;;
66581;SDS011;53438;48.898;2.308;2023-11-19T04:48:49;3.67;;;0.77;;
66581;SDS011;53438;48.898;2.308;2023-11-19T04:51:15;4.80;;;0.70;;
66581;SDS011;53438;48.898;2.308;2023-11-19T04:53:41;2.60;;;0.70;;
66581;SDS011;53438;48.898;2.308;2023-11-19T04:56:07;5.20;;;0.63;;
66581;SDS011;53438;48.898;2.308;2023-11-19T04:58:36;5.75;;;0.93;;
66581;SDS011;53438;48.898;2.308;2023-11-19T05:01:02;5.65;;;1.17;;
66581;SDS011;53438;48.898;2.308;2023-11-19T05:03:28;10.87;;;1.03;;
66581;SDS011;53438;48.898;2.308;2023-11-19T05:05:54;6.57;;;1.00;;
66581;SDS011;53438;48.898;2.308;2023-11-19T05:08:19;5.40;;;0.50;;
66581;SDS011;53438;48.898;2.308;2023-11-19T05:10:44;6.10;;;0.70;;
66581;SDS011;53438;48.898;2.308;2023-11-19T05:13:10;4.93;;;0.70;;
66581;SDS011;53438;48.898;2.308;2023-11-19T05:15:35;5.97;;;0.90;;
66581;SDS011;53438;48.898;2.308;2023-11-19T05:18:00;3.10;;;0.73;;
66581;SDS011;53438;48.898;2.308;2023-11-19T05:20:26;5.47;;;0.80;;
66581;SDS011;53438;48.898;2.308;2023-11-19T05:22:51;6.10;;;1.30;;
66581;SDS011;53438;48.898;2.308;2023-11-19T05:25:18;5.63;;;0.80;;
66581;SDS011;53438;48.898;2.308;2023-11-19T05:27:45;5.05;;;1.08;;
66581;SDS011;53438;48.898;2.308;2023-11-19T05:30:10;5.72;;;0.80;;
66581;SDS011;53438;48.898;2.308;2023-11-19T05:32:36;12.15;;;1.05;;
66581;SDS011;53438;48.898;2.308;2023-11-19T05:35:01;6.83;;;1.30;;
66581;SDS011;53438;48.898;2.308;2023-11-19T05:37:27;6.23;;;0.90;;
66581;SDS011;53438;48.898;2.308;2023-11-19T05:39:52;4.97;;;0.80;;
66581;SDS011;53438;48.898;2.308;2023-11-19T05:42:17;7.30;;;1.10;;
66581;SDS011;53438;48.898;2.308;2023-11-19T05:44:43;6.67;;;0.83;;
66581;SDS011;53438;48.898;2.308;2023-11-19T05:47:08;7.10;;;0.93;;
66581;SDS011;53438;48.898;2.308;2023-11-19T05:49:33;5.47;;;1.10;;
66581;SDS011;53438;48.898;2.308;2023-11-19T05:51:59;6.13;;;0.70;;
66581;SDS011;53438;48.898;2.308;2023-11-19T05:54:24;6.37;;;1.10;;
66581;SDS011;53438;48.898;2.308;2023-11-19T05:56:50;4.43;;;0.93;;
66581;SDS011;53438;48.898;2.308;2023-11-19T05:59:18;6.38;;;1.10;;
66581;SDS011;53438;48.898;2.308;2023-11-19T06:01:44;7.20;;;1.50;;
66581;SDS011;53438;48.898;2.308;2023-11-19T06:04:09;5.67;;;0.70;;
66581;SDS011;53438;48.898;2.308;2023-11-19T06:06:35;5.47;;;1.33;;
66581;SDS011;53438;48.898;2.308;2023-11-19T06:09:01;3.92;;;0.75;;
66581;SDS011;53438;48.898;2.308;2023-11-19T06:11:27;6.88;;;1.10;;
66581;SDS011;53438;48.898;2.308;2023-11-19T06:13:53;9.73;;;1.23;;
66581;SDS011;53438;48.898;2.308;2023-11-19T06:16:18;4.47;;;0.80;;
66581;SDS011;53438;48.898;2.308;2023-11-19T06:18:44;9.10;;;1.10;;
66581;SDS011;53438;48.898;2.308;2023-11-19T06:21:10;4.77;;;1.30;;
66581;SDS011;53438;48.898;2.308;2023-11-19T06:23:36;8.52;;;1.35;;
66581;SDS011;53438;48.898;2.308;2023-11-19T06:26:02;5.32;;;0.90;;
66581;SDS011;53438;48.898;2.308;2023-11-19T06:28:27;7.03;;;1.37;;
66581;SDS011;53438;48.898;2.308;2023-11-19T06:30:53;5.80;;;1.30;;
66581;SDS011;53438;48.898;2.308;2023-11-19T06:33:18;10.83;;;1.30;;
66581;SDS011;53438;48.898;2.308;2023-11-19T06:35:44;8.02;;;1.05;;
66581;SDS011;53438;48.898;2.308;2023-11-19T06:38:10;8.10;;;1.40;;
66581;SDS011;53438;48.898;2.308;2023-11-19T06:40:35;5.90;;;0.73;;
66581;SDS011;53438;48.898;2.308;2023-11-19T06:43:01;8.83;;;1.30;;
66581;SDS011;53438;48.898;2.308;2023-11-19T06:45:29;9.50;;;1.13;;
66581;SDS011;53438;48.898;2.308;2023-11-19T06:47:54;9.13;;;1.57;;
66581;SDS011;53438;48.898;2.308;2023-11-19T06:50:20;10.23;;;1.13;;
66581;SDS011;53438;48.898;2.308;2023-11-19T06:52:46;6.63;;;1.20;;
66581;SDS011;53438;48.898;2.308;2023-11-19T06:55:11;10.60;;;1.50;;
66581;SDS011;53438;48.898;2.308;2023-11-19T06:57:36;8.60;;;1.48;;
66581;SDS011;53438;48.898;2.308;2023-11-19T07:00:02;9.50;;;1.58;;
66581;SDS011;53438;48.898;2.308;2023-11-19T07:02:30;11.50;;;1.23;;
66581;SDS011;53438;48.898;2.308;2023-11-19T07:04:55;7.97;;;1.03;;
66581;SDS011;53438;48.898;2.308;2023-11-19T07:07:21;5.87;;;1.30;;
66581;SDS011;53438;48.898;2.308;2023-11-19T07:09:46;6.57;;;1.40;;
66581;SDS011;53438;48.898;2.308;2023-11-19T07:12:12;8.52;;;1.10;;
66581;SDS011;53438;48.898;2.308;2023-11-19T07:14:39;8.85;;;1.45;;
66581;SDS011;53438;48.898;2.308;2023-11-19T07:17:04;9.20;;;1.97;;
66581;SDS011;53438;48.898;2.308;2023-11-19T07:19:30;7.17;;;1.07;;
66581;SDS011;53438;48.898;2.308;2023-11-19T07:21:55;10.00;;;1.40;;
66581;SDS011;53438;48.898;2.308;2023-11-19T07:24:21;8.70;;;1.55;;
66581;SDS011;53438;48.898;2.308;2023-11-19T07:26:46;9.90;;;1.10;;
66581;SDS011;53438;48.898;2.308;2023-11-19T07:29:12;10.45;;;1.80;;
66581;SDS011;53438;48.898;2.308;2023-11-19T07:31:38;6.43;;;1.20;;
66581;SDS011;53438;48.898;2.308;2023-11-19T07:34:04;10.98;;;2.05;;
66581;SDS011;53438;48.898;2.308;2023-11-19T07:36:31;10.90;;;1.63;;
66581;SDS011;53438;48.898;2.308;2023-11-19T07:38:57;11.00;;;1.35;;
66581;SDS011;53438;48.898;2.308;2023-11-19T07:41:23;9.90;;;1.33;;
66581;SDS011;53438;48.898;2.308;2023-11-19T07:43:50;7.50;;;1.27;;
66581;SDS011;53438;48.898;2.308;2023-11-19T07:46:16;7.87;;;1.50;;
66581;SDS011;53438;48.898;2.308;2023-11-19T07:48:44;9.93;;;1.60;;
66581;SDS011;53438;48.898;2.308;2023-11-19T07:51:10;11.00;;;2.37;;
66581;SDS011;53438;48.898;2.308;2023-11-19T07:53:37;7.63;;;1.25;;
66581;SDS011;53438;48.898;2.308;2023-11-19T07:56:03;11.50;;;2.00;;
66581;SDS011;53438;48.898;2.308;2023-11-19T07:58:30;5.90;;;1.20;;
66581;SDS011;53438;48.898;2.308;2023-11-19T08:00:56;10.95;;;1.90;;
66581;SDS011;53438;48.898;2.308;2023-11-19T08:03:21;9.13;;;1.13;;
66581;SDS011;53438;48.898;2.308;2023-11-19T08:05:47;8.48;;;1.50;;
66581;SDS011;53438;48.898;2.308;2023-11-19T08:08:13;10.87;;;1.23;;
66581;SDS011;53438;48.898;2.308;2023-11-19T08:10:38;7.82;;;1.80;;
66581;SDS011;53438;48.898;2.308;2023-11-19T08:13:04;11.77;;;1.20;;
66581;SDS011;53438;48.898;2.308;2023-11-19T08:15:30;8.85;;;1.20;;
66581;SDS011;53438;48.898;2.308;2023-11-19T08:17:55;16.57;;;2.33;;
66581;SDS011;53438;48.898;2.308;2023-11-19T08:20:21;13.50;;;1.63;;
66581;SDS011;53438;48.898;2.308;2023-11-19T08:22:47;11.25;;;2.20;;
66581;SDS011;53438;48.898;2.308;2023-11-19T08:25:12;10.37;;;1.37;;
66581;SDS011;53438;48.898;2.308;2023-11-19T08:27:38;15.20;;;2.13;;
66581;SDS011;53438;48.898;2.308;2023-11-19T08:30:04;9.47;;;1.60;;
66581;SDS011;53438;48.898;2.308;2023-11-19T08:32:31;7.95;;;1.45;;
66581;SDS011;53438;48.898;2.308;2023-11-19T08:34:56;9.82;;;1.52;;
66581;SDS011;53438;48.898;2.308;2023-11-19T08:37:22;14.47;;;1.60;;
66581;SDS011;53438;48.898;2.308;2023-11-19T08:39:47;8.83;;;1.50;;
66581;SDS011;53438;48.898;2.308;2023-11-19T08:42:13;8.57;;;1.15;;
66581;SDS011;53438;48.898;2.308;2023-11-19T08:44:39;8.53;;;1.90;;
66581;SDS011;53438;48.898;2.308;2023-11-19T08:47:05;12.77;;;1.30;;
66581;SDS011;53438;48.898;2.308;2023-11-19T08:49:31;11.73;;;2.03;;
66581;SDS011;53438;48.898;2.308;2023-11-19T08:51:56;9.93;;;1.40;;
66581;SDS011;53438;48.898;2.308;2023-11-19T08:54:21;12.03;;;2.37;;
66581;SDS011;53438;48.898;2.308;2023-11-19T08:56:48;12.57;;;1.85;;
66581;SDS011;53438;48.898;2.308;2023-11-19T08:59:13;16.25;;;1.80;;
66581;SDS011;53438;48.898;2.308;2023-11-19T09:01:40;9.55;;;1.52;;
66581;SDS011;53438;48.898;2.308;2023-11-19T09:04:06;16.80;;;2.13;;
66581;SDS011;53438;48.898;2.308;2023-11-19T09:06:31;14.30;;;1.97;;
66581;SDS011;53438;48.898;2.308;2023-11-19T09:08:56;16.43;;;1.80;;
66581;SDS011;53438;48.898;2.308;2023-11-19T09:11:25;9.65;;;1.67;;
66581;SDS011;53438;48.898;2.308;2023-11-19T09:13:51;13.27;;;2.37;;
66581;SDS011;53438;48.898;2.308;2023-11-19T09:16:16;11.98;;;2.13;;
66581;SDS011;53438;48.898;2.308;2023-11-19T09:18:41;11.57;;;2.17;;
66581;SDS011;53438;48.898;2.308;2023-11-19T09:21:07;14.10;;;1.60;;
66581;SDS011;53438;48.898;2.308;2023-11-19T09:23:32;12.67;;;1.33;;
66581;SDS011;53438;48.898;2.308;2023-11-19T09:26:03;12.30;;;1.80;;
66581;SDS011;53438;48.898;2.308;2023-11-19T09:28:30;15.10;;;2.47;;
66581;SDS011;53438;48.898;2.308;2023-11-19T09:30:55;16.50;;;2.50;;
66581;SDS011;53438;48.898;2.308;2023-11-19T09:33:21;11.50;;;2.00;;
66581;SDS011;53438;48.898;2.308;2023-11-19T09:35:46;15.40;;;2.37;;
66581;SDS011;53438;48.898;2.308;2023-11-19T09:38:11;11.27;;;1.57;;
66581;SDS011;53438;48.898;2.308;2023-11-19T09:40:37;13.38;;;2.20;;
66581;SDS011;53438;48.898;2.308;2023-11-19T09:43:03;15.20;;;2.25;;
66581;SDS011;53438;48.898;2.308;2023-11-19T09:45:29;10.73;;;1.60;;
66581;SDS011;53438;48.898;2.308;2023-11-19T09:48:01;19.77;;;2.70;;
66581;SDS011;53438;48.898;2.308;2023-11-19T09:50:27;17.10;;;2.03;;
66581;SDS011;53438;48.898;2.308;2023-11-19T09:52:53;16.77;;;2.75;;
66581;SDS011;53438;48.898;2.308;2023-11-19T09:55:18;13.47;;;2.37;;
66581;SDS011;53438;48.898;2.308;2023-11-19T09:57:44;12.00;;;1.83;;
66581;SDS011;53438;48.898;2.308;2023-11-19T10:00:10;13.70;;;1.90;;
66581;SDS011;53438;48.898;2.308;2023-11-19T10:02:40;15.05;;;2.92;;
66581;SDS011;53438;48.898;2.308;2023-11-19T10:05:06;10.63;;;1.73;;
66581;SDS011;53438;48.898;2.308;2023-11-19T10:07:32;19.42;;;2.67;;
66581;SDS011;53438;48.898;2.308;2023-11-19T10:10:02;14.45;;;2.55;;
66581;SDS011;53438;48.898;2.308;2023-11-19T10:12:30;9.53;;;1.80;;
66581;SDS011;53438;48.898;2.308;2023-11-19T10:14:56;18.63;;;2.30;;
66581;SDS011;53438;48.898;2.308;2023-11-19T10:17:33;13.90;;;1.90;;
66581;SDS011;53438;48.898;2.308;2023-11-19T10:19:59;16.85;;;2.10;;
66581;SDS011;53438;48.898;2.308;2023-11-19T10:22:27;11.80;;;1.70;;
66581;SDS011;53438;48.898;2.308;2023-11-19T10:24:52;12.50;;;2.33;;
66581;SDS011;53438;48.898;2.308;2023-11-19T10:27:17;10.53;;;2.30;;
66581;SDS011;53438;48.898;2.308;2023-11-19T10:29:46;10.57;;;1.77;;
66581;SDS011;53438;48.898;2.308;2023-11-19T10:32:12;11.17;;;1.43;;
66581;SDS011;53438;48.898;2.308;2023-11-19T10:34:38;18.88;;;2.63;;
66581;SDS011;53438;48.898;2.308;2023-11-19T10:37:04;9.82;;;2.35;;
66581;SDS011;53438;48.898;2.308;2023-11-19T10:42:19;12.60;;;1.80;;
66581;SDS011;53438;48.898;2.308;2023-11-19T10:44:45;13.87;;;1.97;;
66581;SDS011;53438;48.898;2.308;2023-11-19T10:47:10;19.00;;;3.00;;
66581;SDS011;53438;48.898;2.308;2023-11-19T10:49:38;19.55;;;3.10;;
66581;SDS011;53438;48.898;2.308;2023-11-19T10:52:03;14.40;;;2.37;;
66581;SDS011;53438;48.898;2.308;2023-11-19T10:54:30;13.63;;;1.90;;
66581;SDS011;53438;48.898;2.308;2023-11-19T10:57:01;18.27;;;3.00;;
66581;SDS011;53438;48.898;2.308;2023-11-19T10:59:30;11.20;;;2.00;;
66581;SDS011;53438;48.898;2.308;2023-11-19T11:01:57;16.05;;;2.47;;
66581;SDS011;53438;48.898;2.308;2023-11-19T11:04:25;19.17;;;2.53;;
66581;SDS011;53438;48.898;2.308;2023-11-19T11:06:54;20.38;;;2.45;;
66581;SDS011;53438;48.898;2.308;2023-11-19T11:09:20;16.75;;;3.05;;
66581;SDS011;53438;48.898;2.308;2023-11-19T11:11:46;17.43;;;2.70;;
66581;SDS011;53438;48.898;2.308;2023-11-19T11:14:13;13.33;;;2.10;;
66581;SDS011;53438;48.898;2.308;2023-11-19T11:16:44;14.98;;;2.40;;
66581;SDS011;53438;48.898;2.308;2023-11-19T11:19:11;12.70;;;2.38;;
66581;SDS011;53438;48.898;2.308;2023-11-19T11:21:42;17.35;;;2.25;;
66581;SDS011;53438;48.898;2.308;2023-11-19T11:29:44;25.98;;;2.65;;
66581;SDS011;53438;48.898;2.308;2023-11-19T11:38:12;15.10;;;2.00;;
66581;SDS011;53438;48.898;2.308;2023-11-19T11:40:39;15.37;;;2.57;;
66581;SDS011;53438;48.898;2.308;2023-11-19T11:43:30;14.55;;;2.97;;
66581;SDS011;53438;48.898;2.308;2023-11-19T11:46:09;19.83;;;3.88;;
66581;SDS011;53438;48.898;2.308;2023-11-19T11:48:54;14.38;;;2.67;;
66581;SDS011;53438;48.898;2.308;2023-11-19T11:51:39;17.30;;;2.47;;
66581;SDS011;53438;48.898;2.308;2023-11-19T11:57:03;17.85;;;2.97;;
66581;SDS011;53438;48.898;2.308;2023-11-19T12:02:10;14.27;;;2.20;;
66581;SDS011;53438;48.898;2.308;2023-11-19T12:04:36;17.98;;;2.97;;
66581;SDS011;53438;48.898;2.308;2023-11-19T12:07:36;15.57;;;3.47;;
66581;SDS011;53438;48.898;2.308;2023-11-19T12:10:07;16.42;;;3.17;;
66581;SDS011;53438;48.898;2.308;2023-11-19T12:12:34;14.68;;;3.00;;
66581;SDS011;53438;48.898;2.308;2023-11-19T12:15:01;18.65;;;2.53;;
66581;SDS011;53438;48.898;2.308;2023-11-19T12:19:59;11.38;;;2.03;;
66581;SDS011;53438;48.898;2.308;2023-11-19T12:22:25;12.65;;;1.80;;
66581;SDS011;53438;48.898;2.308;2023-11-19T12:24:51;18.10;;;2.53;;
66581;SDS011;53438;48.898;2.308;2023-11-19T12:27:18;12.90;;;2.25;;
66581;SDS011;53438;48.898;2.308;2023-11-19T12:29:47;11.32;;;2.22;;
66581;SDS011;53438;48.898;2.308;2023-11-19T12:32:12;10.07;;;1.77;;
66581;SDS011;53438;48.898;2.308;2023-11-19T12:34:38;17.30;;;2.75;;
66581;SDS011;53438;48.898;2.308;2023-11-19T12:37:04;12.53;;;1.63;;
66581;SDS011;53438;48.898;2.308;2023-11-19T12:39:30;16.80;;;2.30;;
66581;SDS011;53438;48.898;2.308;2023-11-19T12:41:55;12.30;;;2.33;;
66581;SDS011;53438;48.898;2.308;2023-11-19T12:44:22;17.30;;;2.10;;
66581;SDS011;53438;48.898;2.308;2023-11-19T12:46:58;11.23;;;2.00;;
66581;SDS011;53438;48.898;2.308;2023-11-19T12:49:33;14.70;;;2.20;;
66581;SDS011;53438;48.898;2.308;2023-11-19T12:51:59;12.77;;;2.03;;
66581;SDS011;53438;48.898;2.308;2023-11-19T12:54:37;18.02;;;3.03;;
66581;SDS011;53438;48.898;2.308;2023-11-19T12:57:03;14.52;;;2.53;;
66581;SDS011;53438;48.898;2.308;2023-11-19T12:59:30;15.53;;;2.47;;
66581;SDS011;53438;48.898;2.308;2023-11-19T13:01:59;13.90;;;2.60;;
66581;SDS011;53438;48.898;2.308;2023-11-19T13:04:28;19.05;;;3.42;;
66581;SDS011;53438;48.898;2.308;2023-11-19T13:06:58;15.68;;;2.45;;
66581;SDS011;53438;48.898;2.308;2023-11-19T13:09:24;10.57;;;1.93;;
66581;SDS011;53438;48.898;2.308;2023-11-19T13:11:53;15.55;;;2.08;;
66581;SDS011;53438;48.898;2.308;2023-11-19T13:14:20;18.85;;;3.10;;
66581;SDS011;53438;48.898;2.308;2023-11-19T13:16:46;12.95;;;2.22;;
66581;SDS011;53438;48.898;2.308;2023-11-19T13:19:12;12.07;;;1.80;;
66581;SDS011;53438;48.898;2.308;2023-11-19T13:21:38;13.00;;;1.95;;
66581;SDS011;53438;48.898;2.308;2023-11-19T13:24:04;14.43;;;2.53;;
66581;SDS011;53438;48.898;2.308;2023-11-19T13:26:30;17.65;;;2.45;;
66581;SDS011;53438;48.898;2.308;2023-11-19T13:28:56;13.93;;;1.57;;
66581;SDS011;53438;48.898;2.308;2023-11-19T13:31:22;16.67;;;3.17;;
66581;SDS011;53438;48.898;2.308;2023-11-19T13:33:47;17.10;;;2.67;;
66581;SDS011;53438;48.898;2.308;2023-11-19T13:36:12;18.00;;;2.20;;
66581;SDS011;53438;48.898;2.308;2023-11-19T13:38:38;21.63;;;3.03;;
66581;SDS011;53438;48.898;2.308;2023-11-19T13:41:05;12.85;;;1.98;;
66581;SDS011;53438;48.898;2.308;2023-11-19T13:43:31;14.80;;;2.77;;
66581;SDS011;53438;48.898;2.308;2023-11-19T13:45:57;13.98;;;2.53;;
66581;SDS011;53438;48.898;2.308;2023-11-19T13:48:25;20.13;;;2.83;;
66581;SDS011;53438;48.898;2.308;2023-11-19T13:50:52;16.55;;;2.60;;
66581;SDS011;53438;48.898;2.308;2023-11-19T13:53:17;16.20;;;3.07;;
66581;SDS011;53438;48.898;2.308;2023-11-19T13:55:43;13.97;;;2.37;;
66581;SDS011;53438;48.898;2.308;2023-11-19T13:58:08;13.82;;;1.95;;
66581;SDS011;53438;48.898;2.308;2023-11-19T14:00:34;22.25;;;4.30;;
66581;SDS011;53438;48.898;2.308;2023-11-19T14:02:59;12.30;;;2.10;;
66581;SDS011;53438;48.898;2.308;2023-11-19T14:05:24;15.90;;;2.43;;
66581;SDS011;53438;48.898;2.308;2023-11-19T14:07:50;14.75;;;1.80;;
66581;SDS011;53438;48.898;2.308;2023-11-19T14:10:16;15.00;;;1.60;;
66581;SDS011;53438;48.898;2.308;2023-11-19T14:12:42;11.73;;;2.08;;
66581;SDS011;53438;48.898;2.308;2023-11-19T14:15:09;17.52;;;2.78;;
66581;SDS011;53438;48.898;2.308;2023-11-19T14:17:37;15.80;;;3.40;;
66581;SDS011;53438;48.898;2.308;2023-11-19T14:20:02;14.18;;;2.90;;
66581;SDS011;53438;48.898;2.308;2023-11-19T14:22:37;15.07;;;2.30;;
66581;SDS011;53438;48.898;2.308;2023-11-19T14:25:03;15.40;;;2.78;;
66581;SDS011;53438;48.898;2.308;2023-11-19T14:27:30;12.45;;;2.28;;
66581;SDS011;53438;48.898;2.308;2023-11-19T14:29:55;17.03;;;2.87;;
66581;SDS011;53438;48.898;2.308;2023-11-19T14:32:20;15.27;;;3.50;;
66581;SDS011;53438;48.898;2.308;2023-11-19T14:34:46;12.77;;;2.70;;
66581;SDS011;53438;48.898;2.308;2023-11-19T14:37:11;15.80;;;3.53;;
66581;SDS011;53438;48.898;2.308;2023-11-19T14:39:36;17.83;;;3.03;;
66581;SDS011;53438;48.898;2.308;2023-11-19T14:42:01;10.70;;;1.67;;
66581;SDS011;53438;48.898;2.308;2023-11-19T14:44:29;14.40;;;2.70;;
66581;SDS011;53438;48.898;2.308;2023-11-19T14:46:55;16.63;;;2.70;;
66581;SDS011;53438;48.898;2.308;2023-11-19T14:49:21;15.17;;;2.10;;
66581;SDS011;53438;48.898;2.308;2023-11-19T14:51:46;12.43;;;3.00;;
66581;SDS011;53438;48.898;2.308;2023-11-19T14:54:11;14.50;;;2.33;;
66581;SDS011;53438;48.898;2.308;2023-11-19T14:56:39;12.80;;;2.30;;
66581;SDS011;53438;48.898;2.308;2023-11-19T14:59:04;13.60;;;2.10;;
66581;SDS011;53438;48.898;2.308;2023-11-19T15:01:30;9.77;;;2.73;;
66581;SDS011;53438;48.898;2.308;2023-11-19T15:03:55;16.30;;;2.55;;
66581;SDS011;53438;48.898;2.308;2023-11-19T15:06:24;17.37;;;2.37;;
66581;SDS011;53438;48.898;2.308;2023-11-19T15:08:51;13.68;;;2.75;;
66581;SDS011;53438;48.898;2.308;2023-11-19T15:11:17;17.87;;;1.90;;
66581;SDS011;53438;48.898;2.308;2023-11-19T15:13:42;19.77;;;2.43;;
66581;SDS011;53438;48.898;2.308;2023-11-19T15:16:07;15.80;;;2.73;;
66581;SDS011;53438;48.898;2.308;2023-11-19T15:18:36;14.13;;;2.13;;
66581;SDS011;53438;48.898;2.308;2023-11-19T15:21:03;14.95;;;2.58;;
66581;SDS011;53438;48.898;2.308;2023-11-19T15:23:28;13.77;;;2.33;;
66581;SDS011;53438;48.898;2.308;2023-11-19T15:25:54;12.45;;;1.90;;
66581;SDS011;53438;48.898;2.308;2023-11-19T15:28:20;11.37;;;2.47;;
66581;SDS011;53438;48.898;2.308;2023-11-19T15:30:45;15.03;;;2.03;;
66581;SDS011;53438;48.898;2.308;2023-11-19T15:33:10;17.20;;;4.75;;
66581;SDS011;53438;48.898;2.308;2023-11-19T15:35:37;19.90;;;3.65;;
66581;SDS011;53438;48.898;2.308;2023-11-19T15:38:04;20.65;;;3.55;;
66581;SDS011;53438;48.898;2.308;2023-11-19T15:40:30;17.08;;;2.78;;
66581;SDS011;53438;48.898;2.308;2023-11-19T15:42:55;19.87;;;2.97;;
66581;SDS011;53438;48.898;2.308;2023-11-19T15:45:22;14.95;;;2.35;;
66581;SDS011;53438;48.898;2.308;2023-11-19T15:47:48;15.70;;;2.53;;
66581;SDS011;53438;48.898;2.308;2023-11-19T15:50:14;14.45;;;1.90;;
66581;SDS011;53438;48.898;2.308;2023-11-19T15:52:39;15.40;;;2.10;;
66581;SDS011;53438;48.898;2.308;2023-11-19T15:55:05;16.53;;;2.37;;
66581;SDS011;53438;48.898;2.308;2023-11-19T15:57:30;14.10;;;2.75;;
66581;SDS011;53438;48.898;2.308;2023-11-19T15:59:56;19.00;;;3.40;;
66581;SDS011;53438;48.898;2.308;2023-11-19T16:02:21;17.77;;;2.77;;
66581;SDS011;53438;48.898;2.308;2023-11-19T16:04:47;14.18;;;2.35;;
66581;SDS011;53438;48.898;2.308;2023-11-19T16:07:15;14.97;;;2.80;;
66581;SDS011;53438;48.898;2.308;2023-11-19T16:09:41;12.55;;;2.17;;
66581;SDS011;53438;48.898;2.308;2023-11-19T16:12:08;20.58;;;7.88;;
66581;SDS011;53438;48.898;2.308;2023-11-19T16:14:34;18.73;;;2.57;;
66581;SDS011;53438;48.898;2.308;2023-11-19T16:17:01;15.25;;;2.75;;
66581;SDS011;53438;48.898;2.308;2023-11-19T16:19:26;16.90;;;3.10;;
66581;SDS011;53438;48.898;2.308;2023-11-19T16:21:53;14.60;;;2.30;;
66581;SDS011;53438;48.898;2.308;2023-11-19T16:24:18;17.00;;;3.33;;
66581;SDS011;53438;48.898;2.308;2023-11-19T16:26:44;10.60;;;1.83;;
66581;SDS011;53438;48.898;2.308;2023-11-19T16:29:10;16.83;;;2.53;;
66581;SDS011;53438;48.898;2.308;2023-11-19T16:31:35;15.45;;;2.58;;
66581;SDS011;53438;48.898;2.308;2023-11-19T16:34:01;17.97;;;2.33;;
66581;SDS011;53438;48.898;2.308;2023-11-19T16:36:26;17.70;;;3.70;;
66581;SDS011;53438;48.898;2.308;2023-11-19T16:38:51;16.47;;;2.97;;
66581;SDS011;53438;48.898;2.308;2023-11-19T16:41:20;19.80;;;3.13;;
66581;SDS011;53438;48.898;2.308;2023-11-19T16:43:47;21.67;;;3.50;;
66581;SDS011;53438;48.898;2.308;2023-11-19T16:46:13;18.23;;;2.70;;
66581;SDS011;53438;48.898;2.308;2023-11-19T16:48:39;17.75;;;2.45;;
66581;SDS011;53438;48.898;2.308;2023-11-19T16:51:08;16.47;;;3.00;;
66581;SDS011;53438;48.898;2.308;2023-11-19T16:53:38;16.75;;;2.78;;
66581;SDS011;53438;48.898;2.308;2023-11-19T16:56:13;15.53;;;2.67;;
66581;SDS011;53438;48.898;2.308;2023-11-19T16:58:42;27.42;;;6.32;;
66581;SDS011;53438;48.898;2.308;2023-11-19T17:01:11;16.17;;;3.53;;
66581;SDS011;53438;48.898;2.308;2023-11-19T17:03:39;16.35;;;4.82;;
66581;SDS011;53438;48.898;2.308;2023-11-19T17:06:05;22.25;;;3.97;;
66581;SDS011;53438;48.898;2.308;2023-11-19T17:08:31;21.17;;;3.47;;
66581;SDS011;53438;48.898;2.308;2023-11-19T17:10:59;15.63;;;3.03;;
66581;SDS011;53438;48.898;2.308;2023-11-19T17:13:25;16.25;;;3.70;;
66581;SDS011;53438;48.898;2.308;2023-11-19T17:15:51;18.33;;;3.85;;
66581;SDS011;53438;48.898;2.308;2023-11-19T17:18:16;15.43;;;3.30;;
66581;SDS011;53438;48.898;2.308;2023-11-19T17:20:42;19.37;;;3.60;;
66581;SDS011;53438;48.898;2.308;2023-11-19T17:23:08;23.90;;;4.97;;
66581;SDS011;53438;48.898;2.308;2023-11-19T17:25:33;20.23;;;5.07;;
66581;SDS011;53438;48.898;2.308;2023-11-19T17:27:59;29.80;;;11.53;;
66581;SDS011;53438;48.898;2.308;2023-11-19T17:30:24;24.15;;;6.32;;
66581;SDS011;53438;48.898;2.308;2023-11-19T17:32:50;20.30;;;3.53;;
66581;SDS011;53438;48.898;2.308;2023-11-19T17:35:15;19.87;;;3.53;;
66581;SDS011;53438;48.898;2.308;2023-11-19T17:37:41;16.45;;;3.67;;
66581;SDS011;53438;48.898;2.308;2023-11-19T17:40:06;12.60;;;4.03;;
66581;SDS011;53438;48.898;2.308;2023-11-19T17:42:34;24.50;;;6.10;;
66581;SDS011;53438;48.898;2.308;2023-11-19T17:44:59;22.77;;;4.57;;
66581;SDS011;53438;48.898;2.308;2023-11-19T17:47:25;19.58;;;2.95;;
66581;SDS011;53438;48.898;2.308;2023-11-19T17:49:51;20.93;;;4.47;;
66581;SDS011;53438;48.898;2.308;2023-11-19T17:52:17;21.05;;;4.10;;
66581;SDS011;53438;48.898;2.308;2023-11-19T17:54:44;19.67;;;5.88;;
66581;SDS011;53438;48.898;2.308;2023-11-19T17:57:10;19.50;;;4.10;;